sensor_id;sensor_type;location;lat;lon;timestamp;pressure;altitude;pressure_sealevel;temperature;humidity
48976;BME280;34791;52.752;8.346;2022-12-07T00:01:26;148655.88;;;4.79;100.00
48976;BME280;34791;52.752;8.346;2022-12-07T00:03:54;148659.72;;;4.80;100.00
48976;BME280;34791;52.752;8.346;2022-12-07T00:06:25;148640.44;;;4.73;100.00
48976;BME280;34791;52.752;8.346;2022-12-07T00:08:51;148635.22;;;4.70;100.00
48976;BME280;34791;52.752;8.346;2022-12-07T00:11:19;148640.44;;;4.73;100.00
48976;BME280;34791;52.752;8.346;2022-12-07T00:13:45;148627.50;;;4.67;100.00
48976;BME280;34791;52.752;8.346;2022-12-07T00:16:14;148636.50;;;4.71;100.00
48976;BME280;34791;52.752;8.346;2022-12-07T00:18:40;148626.22;;;4.67;100.00
48976;BME280;34791;52.752;8.346;2022-12-07T00:23:34;148555.38;;;4.39;100.00
48976;BME280;34791;52.752;8.346;2022-12-07T00:28:31;148532.19;;;4.30;100.00
48976;BME280;34791;52.752;8.346;2022-12-07T00:31:04;148518.03;;;4.24;100.00
48976;BME280;34791;52.752;8.346;2022-12-07T00:33:30;148457.50;;;4.00;100.00
48976;BME280;34791;52.752;8.346;2022-12-07T00:35:57;148439.44;;;3.93;100.00
48976;BME280;34791;52.752;8.346;2022-12-07T00:38:24;148427.88;;;3.89;100.00
48976;BME280;34791;52.752;8.346;2022-12-07T00:41:00;148426.59;;;3.88;100.00
48976;BME280;34791;52.752;8.346;2022-12-07T00:43:26;148421.41;;;3.86;100.00
48976;BME280;34791;52.752;8.346;2022-12-07T00:45:52;148395.69;;;3.76;100.00
48976;BME280;34791;52.752;8.346;2022-12-07T00:48:18;148395.69;;;3.76;100.00
48976;BME280;34791;52.752;8.346;2022-12-07T00:50:43;148375.09;;;3.68;100.00
48976;BME280;34791;52.752;8.346;2022-12-07T00:53:09;148372.50;;;3.67;100.00
48976;BME280;34791;52.752;8.346;2022-12-07T00:55:35;148344.19;;;3.56;100.00
48976;BME280;34791;52.752;8.346;2022-12-07T00:58:01;148336.47;;;3.52;100.00
48976;BME280;34791;52.752;8.346;2022-12-07T01:00:26;148309.44;;;3.42;100.00
48976;BME280;34791;52.752;8.346;2022-12-07T01:02:52;148323.56;;;3.47;100.00
48976;BME280;34791;52.752;8.346;2022-12-07T01:05:18;148313.28;;;3.43;100.00
48976;BME280;34791;52.752;8.346;2022-12-07T01:07:43;148282.41;;;3.31;100.00
48976;BME280;34791;52.752;8.346;2022-12-07T01:10:09;148270.78;;;3.27;100.00
48976;BME280;34791;52.752;8.346;2022-12-07T01:12:34;148248.94;;;3.18;100.00
48976;BME280;34791;52.752;8.346;2022-12-07T01:15:00;148264.38;;;3.24;100.00
48976;BME280;34791;52.752;8.346;2022-12-07T01:17:25;148254.09;;;3.20;100.00
48976;BME280;34791;52.752;8.346;2022-12-07T01:19:51;148248.94;;;3.18;100.00
48976;BME280;34791;52.752;8.346;2022-12-07T01:22:16;148251.53;;;3.19;100.00
48976;BME280;34791;52.752;8.346;2022-12-07T01:24:41;148247.66;;;3.17;100.00
48976;BME280;34791;52.752;8.346;2022-12-07T01:27:07;148233.47;;;3.12;100.00
48976;BME280;34791;52.752;8.346;2022-12-07T01:29:32;148229.63;;;3.10;100.00
48976;BME280;34791;52.752;8.346;2022-12-07T01:32:00;148175.59;;;2.89;100.00
48976;BME280;34791;52.752;8.346;2022-12-07T01:34:25;148212.94;;;3.04;100.00
48976;BME280;34791;52.752;8.346;2022-12-07T01:36:51;148219.34;;;3.06;100.00
48976;BME280;34791;52.752;8.346;2022-12-07T01:39:16;148182.06;;;2.91;100.00
48976;BME280;34791;52.752;8.346;2022-12-07T01:41:41;148194.91;;;2.97;100.00
48976;BME280;34791;52.752;8.346;2022-12-07T01:46:53;148133.16;;;2.72;100.00
48976;BME280;34791;52.752;8.346;2022-12-07T01:49:42;148167.88;;;2.86;100.00
48976;BME280;34791;52.752;8.346;2022-12-07T01:52:15;148152.47;;;2.80;100.00
48976;BME280;34791;52.752;8.346;2022-12-07T01:54:43;148115.13;;;2.65;100.00
48976;BME280;34791;52.752;8.346;2022-12-07T01:57:10;148086.81;;;2.54;100.00
48976;BME280;34791;52.752;8.346;2022-12-07T01:59:38;148138.28;;;2.74;100.00
48976;BME280;34791;52.752;8.346;2022-12-07T02:02:09;148153.75;;;2.80;100.00
48976;BME280;34791;52.752;8.346;2022-12-07T02:04:35;148143.44;;;2.76;100.00
48976;BME280;34791;52.752;8.346;2022-12-07T02:07:02;148128.00;;;2.70;100.00
48976;BME280;34791;52.752;8.346;2022-12-07T02:09:28;148151.19;;;2.79;100.00
48976;BME280;34791;52.752;8.346;2022-12-07T02:11:54;148143.44;;;2.76;100.00
48976;BME280;34791;52.752;8.346;2022-12-07T02:14:20;148138.28;;;2.74;100.00
48976;BME280;34791;52.752;8.346;2022-12-07T02:20:06;148143.44;;;2.76;100.00
48976;BME280;34791;52.752;8.346;2022-12-07T02:27:47;148084.25;;;2.53;100.00
48976;BME280;34791;52.752;8.346;2022-12-07T02:30:18;148086.81;;;2.54;100.00
48976;BME280;34791;52.752;8.346;2022-12-07T02:35:47;148081.69;;;2.52;100.00
48976;BME280;34791;52.752;8.346;2022-12-07T02:38:39;148067.56;;;2.46;100.00
48976;BME280;34791;52.752;8.346;2022-12-07T02:41:12;148074.00;;;2.49;100.00
48976;BME280;34791;52.752;8.346;2022-12-07T02:43:44;148103.56;;;2.60;100.00
48976;BME280;34791;52.752;8.346;2022-12-07T02:46:17;148137.00;;;2.74;100.00
48976;BME280;34791;52.752;8.346;2022-12-07T02:48:46;148157.59;;;2.82;100.00
48976;BME280;34791;52.752;8.346;2022-12-07T02:51:12;148146.00;;;2.77;100.00
48976;BME280;34791;52.752;8.346;2022-12-07T02:53:40;148153.75;;;2.80;100.00
48976;BME280;34791;52.752;8.346;2022-12-07T03:01:47;148120.31;;;2.67;100.00
48976;BME280;34791;52.752;8.346;2022-12-07T03:04:42;148117.69;;;2.66;100.00
48976;BME280;34791;52.752;8.346;2022-12-07T03:10:01;148089.44;;;2.55;100.00
48976;BME280;34791;52.752;8.346;2022-12-07T03:13:02;148074.00;;;2.49;100.00
48976;BME280;34791;52.752;8.346;2022-12-07T03:18:12;148070.13;;;2.47;100.00
48976;BME280;34791;52.752;8.346;2022-12-07T03:20:41;148059.88;;;2.43;100.00
48976;BME280;34791;52.752;8.346;2022-12-07T03:23:09;148070.13;;;2.47;100.00
48976;BME280;34791;52.752;8.346;2022-12-07T03:25:40;148030.28;;;2.31;100.00
48976;BME280;34791;52.752;8.346;2022-12-07T03:28:08;147994.25;;;2.17;100.00
48976;BME280;34791;52.752;8.346;2022-12-07T03:30:59;147950.56;;;2.00;100.00
48976;BME280;34791;52.752;8.346;2022-12-07T03:33:32;147942.88;;;1.97;100.00
48976;BME280;34791;52.752;8.346;2022-12-07T03:36:10;147932.56;;;1.93;100.00
48976;BME280;34791;52.752;8.346;2022-12-07T03:39:03;147927.41;;;1.91;100.00
48976;BME280;34791;52.752;8.346;2022-12-07T03:41:35;147903.00;;;1.81;100.00
48976;BME280;34791;52.752;8.346;2022-12-07T03:44:02;147917.16;;;1.87;100.00
48976;BME280;34791;52.752;8.346;2022-12-07T03:49:59;147932.56;;;1.93;100.00
48976;BME280;34791;52.752;8.346;2022-12-07T03:52:23;147953.13;;;2.01;100.00
48976;BME280;34791;52.752;8.346;2022-12-07T03:55:00;147955.69;;;2.02;100.00
48976;BME280;34791;52.752;8.346;2022-12-07T03:57:30;147963.41;;;2.05;100.00
48976;BME280;34791;52.752;8.346;2022-12-07T03:59:57;147964.69;;;2.05;100.00
48976;BME280;34791;52.752;8.346;2022-12-07T04:02:24;147999.44;;;2.19;100.00
48976;BME280;34791;52.752;8.346;2022-12-07T04:04:50;148050.84;;;2.40;100.00
48976;BME280;34791;52.752;8.346;2022-12-07T04:07:15;148079.13;;;2.51;100.00
48976;BME280;34791;52.752;8.346;2022-12-07T04:09:41;148079.13;;;2.51;100.00
48976;BME280;34791;52.752;8.346;2022-12-07T04:12:06;148079.13;;;2.51;100.00
48976;BME280;34791;52.752;8.346;2022-12-07T04:14:32;148102.28;;;2.60;100.00
48976;BME280;34791;52.752;8.346;2022-12-07T04:16:58;148102.28;;;2.60;100.00
48976;BME280;34791;52.752;8.346;2022-12-07T04:19:31;148104.84;;;2.61;100.00
48976;BME280;34791;52.752;8.346;2022-12-07T04:21:59;148125.44;;;2.69;100.00
48976;BME280;34791;52.752;8.346;2022-12-07T04:24:25;148120.31;;;2.67;100.00
48976;BME280;34791;52.752;8.346;2022-12-07T04:26:50;148104.84;;;2.61;100.00
48976;BME280;34791;52.752;8.346;2022-12-07T04:29:17;148081.69;;;2.52;100.00
48976;BME280;34791;52.752;8.346;2022-12-07T04:31:43;148071.41;;;2.48;100.00
48976;BME280;34791;52.752;8.346;2022-12-07T04:34:09;148045.69;;;2.38;100.00
48976;BME280;34791;52.752;8.346;2022-12-07T04:36:34;148026.38;;;2.30;100.00
48976;BME280;34791;52.752;8.346;2022-12-07T04:39:00;148022.53;;;2.28;100.00
48976;BME280;34791;52.752;8.346;2022-12-07T04:41:26;147991.69;;;2.16;100.00
48976;BME280;34791;52.752;8.346;2022-12-07T04:43:59;148009.69;;;2.23;100.00
48976;BME280;34791;52.752;8.346;2022-12-07T04:46:26;148004.56;;;2.21;100.00
48976;BME280;34791;52.752;8.346;2022-12-07T04:48:53;148008.41;;;2.23;100.00
48976;BME280;34791;52.752;8.346;2022-12-07T04:51:21;148019.97;;;2.27;100.00
48976;BME280;34791;52.752;8.346;2022-12-07T04:53:47;148045.69;;;2.38;100.00
48976;BME280;34791;52.752;8.346;2022-12-07T04:56:14;148076.56;;;2.50;100.00
48976;BME280;34791;52.752;8.346;2022-12-07T04:58:40;148099.72;;;2.59;100.00
48976;BME280;34791;52.752;8.346;2022-12-07T05:01:06;148117.69;;;2.66;100.00
48976;BME280;34791;52.752;8.346;2022-12-07T05:03:31;148135.72;;;2.73;100.00
48976;BME280;34791;52.752;8.346;2022-12-07T05:05:56;148146.00;;;2.77;100.00
48976;BME280;34791;52.752;8.346;2022-12-07T05:08:22;148140.84;;;2.75;100.00
48976;BME280;34791;52.752;8.346;2022-12-07T05:10:48;148138.28;;;2.74;100.00
48976;BME280;34791;52.752;8.346;2022-12-07T05:13:14;148140.84;;;2.75;100.00
48976;BME280;34791;52.752;8.346;2022-12-07T05:15:40;148133.16;;;2.72;100.00
48976;BME280;34791;52.752;8.346;2022-12-07T05:18:05;148138.28;;;2.74;100.00
48976;BME280;34791;52.752;8.346;2022-12-07T05:20:30;148125.44;;;2.69;100.00
48976;BME280;34791;52.752;8.346;2022-12-07T05:22:56;148104.84;;;2.61;100.00
48976;BME280;34791;52.752;8.346;2022-12-07T05:25:23;148097.16;;;2.58;100.00
48976;BME280;34791;52.752;8.346;2022-12-07T05:27:49;148112.56;;;2.64;100.00
48976;BME280;34791;52.752;8.346;2022-12-07T05:30:14;148121.59;;;2.68;100.00
48976;BME280;34791;52.752;8.346;2022-12-07T05:32:40;148133.16;;;2.72;100.00
48976;BME280;34791;52.752;8.346;2022-12-07T05:35:05;148166.59;;;2.85;100.00
48976;BME280;34791;52.752;8.346;2022-12-07T05:37:31;148169.16;;;2.86;100.00
48976;BME280;34791;52.752;8.346;2022-12-07T05:39:56;148151.19;;;2.79;100.00
48976;BME280;34791;52.752;8.346;2022-12-07T05:42:22;148133.16;;;2.72;100.00
48976;BME280;34791;52.752;8.346;2022-12-07T05:44:47;148142.16;;;2.76;100.00
48976;BME280;34791;52.752;8.346;2022-12-07T05:47:14;148133.16;;;2.72;100.00
48976;BME280;34791;52.752;8.346;2022-12-07T05:49:40;148143.44;;;2.76;100.00
48976;BME280;34791;52.752;8.346;2022-12-07T05:52:05;148128.00;;;2.70;100.00
48976;BME280;34791;52.752;8.346;2022-12-07T05:54:31;148151.19;;;2.79;100.00
48976;BME280;34791;52.752;8.346;2022-12-07T05:56:57;148139.56;;;2.75;100.00
48976;BME280;34791;52.752;8.346;2022-12-07T05:59:22;148138.28;;;2.74;100.00
48976;BME280;34791;52.752;8.346;2022-12-07T06:01:49;148130.59;;;2.71;100.00
48976;BME280;34791;52.752;8.346;2022-12-07T06:04:16;148153.75;;;2.80;100.00
48976;BME280;34791;52.752;8.346;2022-12-07T06:06:41;148164.03;;;2.84;100.00
48976;BME280;34791;52.752;8.346;2022-12-07T06:09:07;148189.75;;;2.94;100.00
48976;BME280;34791;52.752;8.346;2022-12-07T06:11:32;148209.03;;;3.02;100.00
48976;BME280;34791;52.752;8.346;2022-12-07T06:14:16;148212.94;;;3.04;100.00
48976;BME280;34791;52.752;8.346;2022-12-07T06:16:41;148203.88;;;3.00;100.00
48976;BME280;34791;52.752;8.346;2022-12-07T06:19:07;148202.59;;;3.00;100.00
48976;BME280;34791;52.752;8.346;2022-12-07T06:21:32;148202.59;;;3.00;100.00
48976;BME280;34791;52.752;8.346;2022-12-07T06:23:58;148187.19;;;2.93;100.00
48976;BME280;34791;52.752;8.346;2022-12-07T06:26:23;148187.19;;;2.93;100.00
48976;BME280;34791;52.752;8.346;2022-12-07T06:28:48;148171.72;;;2.87;100.00
48976;BME280;34791;52.752;8.346;2022-12-07T06:31:14;148152.47;;;2.80;100.00
48976;BME280;34791;52.752;8.346;2022-12-07T06:33:41;148133.16;;;2.72;100.00
48976;BME280;34791;52.752;8.346;2022-12-07T06:36:06;148125.44;;;2.69;100.00
48976;BME280;34791;52.752;8.346;2022-12-07T06:38:32;148135.72;;;2.73;100.00
48976;BME280;34791;52.752;8.346;2022-12-07T06:40:57;148125.44;;;2.69;100.00
48976;BME280;34791;52.752;8.346;2022-12-07T06:43:22;148115.13;;;2.65;100.00
48976;BME280;34791;52.752;8.346;2022-12-07T06:45:48;148115.13;;;2.65;100.00
48976;BME280;34791;52.752;8.346;2022-12-07T06:48:13;148110.00;;;2.63;100.00
48976;BME280;34791;52.752;8.346;2022-12-07T06:50:39;148119.03;;;2.67;100.00
48976;BME280;34791;52.752;8.346;2022-12-07T06:53:04;148128.00;;;2.70;100.00
48976;BME280;34791;52.752;8.346;2022-12-07T06:55:30;148151.19;;;2.79;100.00
48976;BME280;34791;52.752;8.346;2022-12-07T06:57:55;148156.31;;;2.81;100.00
48976;BME280;34791;52.752;8.346;2022-12-07T07:00:21;148164.03;;;2.84;100.00
48976;BME280;34791;52.752;8.346;2022-12-07T07:02:46;148175.59;;;2.89;100.00
48976;BME280;34791;52.752;8.346;2022-12-07T07:05:11;148171.72;;;2.87;100.00
48976;BME280;34791;52.752;8.346;2022-12-07T07:07:37;148178.16;;;2.90;100.00
48976;BME280;34791;52.752;8.346;2022-12-07T07:10:03;148189.75;;;2.94;100.00
48976;BME280;34791;52.752;8.346;2022-12-07T07:12:28;148200.03;;;2.99;100.00
48976;BME280;34791;52.752;8.346;2022-12-07T07:14:53;148189.75;;;2.94;100.00
48976;BME280;34791;52.752;8.346;2022-12-07T07:17:19;148180.78;;;2.91;100.00
48976;BME280;34791;52.752;8.346;2022-12-07T07:19:44;148182.06;;;2.91;100.00
48976;BME280;34791;52.752;8.346;2022-12-07T07:22:10;148189.75;;;2.94;100.00
48976;BME280;34791;52.752;8.346;2022-12-07T07:24:35;148185.91;;;2.93;100.00
48976;BME280;34791;52.752;8.346;2022-12-07T07:27:00;148178.16;;;2.90;100.00
48976;BME280;34791;52.752;8.346;2022-12-07T07:29:26;148175.59;;;2.89;100.00
48976;BME280;34791;52.752;8.346;2022-12-07T07:31:51;148184.63;;;2.92;100.00
48976;BME280;34791;52.752;8.346;2022-12-07T07:34:16;148189.75;;;2.94;100.00
48976;BME280;34791;52.752;8.346;2022-12-07T07:36:42;148182.06;;;2.91;100.00
48976;BME280;34791;52.752;8.346;2022-12-07T07:39:07;148182.06;;;2.91;100.00
48976;BME280;34791;52.752;8.346;2022-12-07T07:41:34;148179.44;;;2.90;100.00
48976;BME280;34791;52.752;8.346;2022-12-07T07:43:59;148183.34;;;2.92;100.00
48976;BME280;34791;52.752;8.346;2022-12-07T07:46:25;148175.59;;;2.89;100.00
48976;BME280;34791;52.752;8.346;2022-12-07T07:48:50;148176.88;;;2.89;100.00
48976;BME280;34791;52.752;8.346;2022-12-07T07:51:15;148171.72;;;2.87;100.00
48976;BME280;34791;52.752;8.346;2022-12-07T07:53:41;148152.47;;;2.80;100.00
48976;BME280;34791;52.752;8.346;2022-12-07T07:56:06;148133.16;;;2.72;100.00
48976;BME280;34791;52.752;8.346;2022-12-07T07:58:32;148110.00;;;2.63;100.00
48976;BME280;34791;52.752;8.346;2022-12-07T08:01:03;148084.25;;;2.53;100.00
48976;BME280;34791;52.752;8.346;2022-12-07T08:03:28;148086.81;;;2.54;100.00
48976;BME280;34791;52.752;8.346;2022-12-07T08:05:54;148098.44;;;2.58;100.00
48976;BME280;34791;52.752;8.346;2022-12-07T08:08:19;148085.53;;;2.53;100.00
48976;BME280;34791;52.752;8.346;2022-12-07T08:10:44;148099.72;;;2.59;100.00
48976;BME280;34791;52.752;8.346;2022-12-07T08:13:10;148097.16;;;2.58;100.00
48976;BME280;34791;52.752;8.346;2022-12-07T08:15:43;148081.69;;;2.52;100.00
48976;BME280;34791;52.752;8.346;2022-12-07T08:18:09;148074.00;;;2.49;100.00
48976;BME280;34791;52.752;8.346;2022-12-07T08:20:36;148164.03;;;2.84;100.00
48976;BME280;34791;52.752;8.346;2022-12-07T08:23:01;148215.50;;;3.05;100.00
48976;BME280;34791;52.752;8.346;2022-12-07T08:25:28;148297.81;;;3.37;100.00
48976;BME280;34791;52.752;8.346;2022-12-07T08:27:54;148336.47;;;3.52;100.00
48976;BME280;34791;52.752;8.346;2022-12-07T08:30:20;148321.00;;;3.46;100.00
48976;BME280;34791;52.752;8.346;2022-12-07T08:32:46;148336.47;;;3.52;100.00
48976;BME280;34791;52.752;8.346;2022-12-07T08:35:13;148323.56;;;3.47;100.00
48976;BME280;34791;52.752;8.346;2022-12-07T08:37:39;148300.41;;;3.38;100.00
48976;BME280;34791;52.752;8.346;2022-12-07T08:40:05;148321.00;;;3.46;100.00
48976;BME280;34791;52.752;8.346;2022-12-07T08:42:31;148305.59;;;3.40;100.00
48976;BME280;34791;52.752;8.346;2022-12-07T08:45:08;148274.69;;;3.28;100.00
48976;BME280;34791;52.752;8.346;2022-12-07T08:47:37;148268.22;;;3.26;100.00
48976;BME280;34791;52.752;8.346;2022-12-07T08:50:05;148246.38;;;3.17;100.00
48976;BME280;34791;52.752;8.346;2022-12-07T08:52:32;148266.94;;;3.25;100.00
48976;BME280;34791;52.752;8.346;2022-12-07T08:54:59;148248.94;;;3.18;100.00
48976;BME280;34791;52.752;8.346;2022-12-07T08:57:27;148216.78;;;3.05;100.00
48976;BME280;34791;52.752;8.346;2022-12-07T08:59:53;148182.06;;;2.91;100.00
48976;BME280;34791;52.752;8.346;2022-12-07T09:02:18;148166.59;;;2.85;100.00
48976;BME280;34791;52.752;8.346;2022-12-07T09:04:44;148157.59;;;2.82;100.00
48976;BME280;34791;52.752;8.346;2022-12-07T09:07:09;148148.56;;;2.78;100.00
48976;BME280;34791;52.752;8.346;2022-12-07T09:09:35;148160.19;;;2.83;100.00
48976;BME280;34791;52.752;8.346;2022-12-07T09:12:00;148152.47;;;2.80;100.00
48976;BME280;34791;52.752;8.346;2022-12-07T09:14:26;148219.34;;;3.06;100.00
48976;BME280;34791;52.752;8.346;2022-12-07T09:16:51;148233.47;;;3.12;100.00
48976;BME280;34791;52.752;8.346;2022-12-07T09:19:17;148270.78;;;3.27;100.00
48976;BME280;34791;52.752;8.346;2022-12-07T09:21:42;148312.00;;;3.43;100.00
48976;BME280;34791;52.752;8.346;2022-12-07T09:24:07;148351.91;;;3.59;100.00
48976;BME280;34791;52.752;8.346;2022-12-07T09:26:34;148373.78;;;3.67;100.00
48976;BME280;34791;52.752;8.346;2022-12-07T09:29:02;148439.44;;;3.93;100.00
48976;BME280;34791;52.752;8.346;2022-12-07T09:31:27;148411.13;;;3.82;100.00
48976;BME280;34791;52.752;8.346;2022-12-07T09:33:57;148429.16;;;3.89;100.00
48976;BME280;34791;52.752;8.346;2022-12-07T09:36:24;148393.06;;;3.75;100.00
48976;BME280;34791;52.752;8.346;2022-12-07T09:38:50;148411.13;;;3.82;100.00
48976;BME280;34791;52.752;8.346;2022-12-07T09:41:15;148364.78;;;3.64;100.00
48976;BME280;34791;52.752;8.346;2022-12-07T09:43:41;148357.03;;;3.61;100.00
48976;BME280;34791;52.752;8.346;2022-12-07T09:46:13;148341.63;;;3.55;100.00
48976;BME280;34791;52.752;8.346;2022-12-07T09:48:40;148336.47;;;3.52;100.00
48976;BME280;34791;52.752;8.346;2022-12-07T09:51:21;148375.09;;;3.68;100.00
48976;BME280;34791;52.752;8.346;2022-12-07T09:53:47;148411.13;;;3.82;100.00
48976;BME280;34791;52.752;8.346;2022-12-07T09:56:14;148434.31;;;3.91;100.00
48976;BME280;34791;52.752;8.346;2022-12-07T09:58:41;148442.03;;;3.94;100.00
48976;BME280;34791;52.752;8.346;2022-12-07T10:03:34;148470.34;;;4.05;100.00
48976;BME280;34791;52.752;8.346;2022-12-07T10:05:59;148462.66;;;4.02;100.00
48976;BME280;34791;52.752;8.346;2022-12-07T10:08:25;148439.44;;;3.93;100.00
48976;BME280;34791;52.752;8.346;2022-12-07T10:10:53;148427.88;;;3.89;100.00
48976;BME280;34791;52.752;8.346;2022-12-07T10:13:34;148439.44;;;3.93;100.00
48976;BME280;34791;52.752;8.346;2022-12-07T10:15:59;148457.50;;;4.00;100.00
48976;BME280;34791;52.752;8.346;2022-12-07T10:18:49;148422.69;;;3.87;100.00
48976;BME280;34791;52.752;8.346;2022-12-07T10:21:17;148395.69;;;3.76;100.00
48976;BME280;34791;52.752;8.346;2022-12-07T10:24:04;148377.66;;;3.69;100.00
48976;BME280;34791;52.752;8.346;2022-12-07T10:29:23;148339.03;;;3.53;100.00
48976;BME280;34791;52.752;8.346;2022-12-07T10:31:57;148336.47;;;3.52;100.00
48976;BME280;34791;52.752;8.346;2022-12-07T10:34:26;148340.31;;;3.54;100.00
48976;BME280;34791;52.752;8.346;2022-12-07T10:36:53;148344.19;;;3.56;100.00
48976;BME280;34791;52.752;8.346;2022-12-07T10:39:21;148366.09;;;3.64;100.00
48976;BME280;34791;52.752;8.346;2022-12-07T10:44:24;148431.75;;;3.90;100.00
48976;BME280;34791;52.752;8.346;2022-12-07T11:01:10;148645.56;;;4.75;100.00
48976;BME280;34791;52.752;8.346;2022-12-07T11:09:51;148764.16;;;5.21;100.00
48976;BME280;34791;52.752;8.346;2022-12-07T11:17:36;148684.22;;;4.90;100.00
48976;BME280;34791;52.752;8.346;2022-12-07T11:23:04;148658.44;;;4.80;100.00
48976;BME280;34791;52.752;8.346;2022-12-07T11:25:54;148676.50;;;4.87;100.00
48976;BME280;34791;52.752;8.346;2022-12-07T11:39:09;148624.94;;;4.66;100.00
48976;BME280;34791;52.752;8.346;2022-12-07T11:41:38;148575.97;;;4.47;100.00
48976;BME280;34791;52.752;8.346;2022-12-07T11:44:08;148572.09;;;4.46;100.00
48976;BME280;34791;52.752;8.346;2022-12-07T11:46:48;148581.16;;;4.49;100.00
48976;BME280;34791;52.752;8.346;2022-12-07T11:49:40;148552.81;;;4.38;100.00
48976;BME280;34791;52.752;8.346;2022-12-07T11:52:16;148575.97;;;4.47;100.00
48976;BME280;34791;52.752;8.346;2022-12-07T11:54:43;148637.81;;;4.71;100.00
48976;BME280;34791;52.752;8.346;2022-12-07T11:57:19;148681.66;;;4.89;100.00
48976;BME280;34791;52.752;8.346;2022-12-07T11:59:49;148738.38;;;5.11;100.00
48976;BME280;34791;52.752;8.346;2022-12-07T12:02:20;148694.50;;;4.94;100.00
48976;BME280;34791;52.752;8.346;2022-12-07T12:05:21;148756.38;;;5.18;100.00
48976;BME280;34791;52.752;8.346;2022-12-07T12:07:52;148777.03;;;5.26;100.00
48976;BME280;34791;52.752;8.346;2022-12-07T12:16:08;148702.28;;;4.97;100.00
48976;BME280;34791;52.752;8.346;2022-12-07T12:21:23;148667.44;;;4.83;100.00
48976;BME280;34791;52.752;8.346;2022-12-07T12:24:15;148645.56;;;4.75;100.00
48976;BME280;34791;52.752;8.346;2022-12-07T12:26:49;148658.44;;;4.80;100.00
48976;BME280;34791;52.752;8.346;2022-12-07T12:29:32;148649.44;;;4.76;100.00
48976;BME280;34791;52.752;8.346;2022-12-07T12:32:21;148632.66;;;4.69;100.00
48976;BME280;34791;52.752;8.346;2022-12-07T12:42:48;148578.53;;;4.48;100.00
48976;BME280;34791;52.752;8.346;2022-12-07T12:45:23;148590.16;;;4.53;100.00
48976;BME280;34791;52.752;8.346;2022-12-07T12:48:03;148591.44;;;4.53;100.00
48976;BME280;34791;52.752;8.346;2022-12-07T12:50:36;148570.81;;;4.45;100.00
48976;BME280;34791;52.752;8.346;2022-12-07T13:00:42;148600.44;;;4.57;100.00
48976;BME280;34791;52.752;8.346;2022-12-07T13:03:22;148581.16;;;4.49;100.00
48976;BME280;34791;52.752;8.346;2022-12-07T13:08:49;148575.97;;;4.47;100.00
48976;BME280;34791;52.752;8.346;2022-12-07T13:11:35;148604.31;;;4.58;100.00
48976;BME280;34791;52.752;8.346;2022-12-07T13:17:55;148578.53;;;4.48;100.00
48976;BME280;34791;52.752;8.346;2022-12-07T13:20:03;148554.09;;;4.38;100.00
48976;BME280;34791;52.752;8.346;2022-12-07T13:25:02;148547.63;;;4.36;100.00
48976;BME280;34791;52.752;8.346;2022-12-07T13:27:30;148511.56;;;4.22;100.00
48976;BME280;34791;52.752;8.346;2022-12-07T13:29:56;148506.41;;;4.20;100.00
48976;BME280;34791;52.752;8.346;2022-12-07T13:32:25;148497.41;;;4.16;100.00
48976;BME280;34791;52.752;8.346;2022-12-07T13:34:51;148488.41;;;4.13;100.00
48976;BME280;34791;52.752;8.346;2022-12-07T13:37:25;148472.94;;;4.06;100.00
48976;BME280;34791;52.752;8.346;2022-12-07T13:39:56;148478.06;;;4.08;100.00
48976;BME280;34791;52.752;8.346;2022-12-07T13:42:30;148481.94;;;4.10;100.00
48976;BME280;34791;52.752;8.346;2022-12-07T13:44:58;148490.97;;;4.14;100.00
48976;BME280;34791;52.752;8.346;2022-12-07T13:47:48;148479.34;;;4.09;100.00
48976;BME280;34791;52.752;8.346;2022-12-07T13:50:28;148472.94;;;4.06;100.00
48976;BME280;34791;52.752;8.346;2022-12-07T13:52:56;148480.66;;;4.09;100.00
48976;BME280;34791;52.752;8.346;2022-12-07T13:55:22;148467.78;;;4.04;100.00
48976;BME280;34791;52.752;8.346;2022-12-07T13:57:51;148467.78;;;4.04;100.00
48976;BME280;34791;52.752;8.346;2022-12-07T14:00:19;148469.06;;;4.05;100.00
48976;BME280;34791;52.752;8.346;2022-12-07T14:05:37;148462.66;;;4.02;100.00
48976;BME280;34791;52.752;8.346;2022-12-07T14:08:22;148469.06;;;4.05;100.00
48976;BME280;34791;52.752;8.346;2022-12-07T14:15:50;148518.03;;;4.24;100.00
48976;BME280;34791;52.752;8.346;2022-12-07T14:18:30;148529.59;;;4.29;100.00
48976;BME280;34791;52.752;8.346;2022-12-07T14:23:34;148529.59;;;4.29;100.00
48976;BME280;34791;52.752;8.346;2022-12-07T14:26:20;148516.69;;;4.24;100.00
48976;BME280;34791;52.752;8.346;2022-12-07T14:28:46;148499.97;;;4.17;100.00
48976;BME280;34791;52.752;8.346;2022-12-07T14:31:14;148493.56;;;4.15;100.00
48976;BME280;34791;52.752;8.346;2022-12-07T14:33:40;148499.97;;;4.17;100.00
48976;BME280;34791;52.752;8.346;2022-12-07T14:36:09;148506.41;;;4.20;100.00
48976;BME280;34791;52.752;8.346;2022-12-07T14:38:35;148503.84;;;4.19;100.00
48976;BME280;34791;52.752;8.346;2022-12-07T14:41:02;148516.69;;;4.24;100.00
48976;BME280;34791;52.752;8.346;2022-12-07T14:43:47;148516.69;;;4.24;100.00
48976;BME280;34791;52.752;8.346;2022-12-07T14:46:14;148520.59;;;4.25;100.00
48976;BME280;34791;52.752;8.346;2022-12-07T14:48:39;148502.56;;;4.18;100.00
48976;BME280;34791;52.752;8.346;2022-12-07T14:51:04;148472.94;;;4.06;100.00
48976;BME280;34791;52.752;8.346;2022-12-07T14:53:35;148460.06;;;4.01;100.00
48976;BME280;34791;52.752;8.346;2022-12-07T14:56:03;148427.88;;;3.89;100.00
48976;BME280;34791;52.752;8.346;2022-12-07T14:58:30;148398.28;;;3.77;100.00
48976;BME280;34791;52.752;8.346;2022-12-07T15:00:55;148360.91;;;3.62;100.00
48976;BME280;34791;52.752;8.346;2022-12-07T15:03:21;148346.75;;;3.57;100.00